Time;durP1;ratioP1;P1;durP2;ratioP2;P2;SDS_P1;SDS_P2;PMS_P1;PMS_P2;Temp;Humidity;BMP_temperature;BMP_pressure;BME280_temperature;BME280_humidity;BME280_pressure;Samples;Min_cycle;Max_cycle;Signal;HPM_P1;HPM_P2
2022/07/05 00:00:31;;;;;;;2.70;1.40;;;;;;;;;;5029544;28;20021;-68
2022/07/05 00:02:56;;;;;;;16.07;2.40;;;;;;;;;;5032191;28;20083;-68
2022/07/05 00:05:21;;;;;;;7.40;1.73;;;;;;;;;;5030143;28;20318;-68
2022/07/05 00:07:46;;;;;;;5.05;2.40;;;;;;;;;;5030269;28;20298;-68
2022/07/05 00:10:12;;;;;;;7.83;1.63;;;;;;;;;;5031814;28;20076;-68
2022/07/05 00:12:37;;;;;;;2.22;1.38;;;;;;;;;;5031604;28;20264;-68
2022/07/05 00:15:03;;;;;;;4.25;1.92;;;;;;;;;;5025149;28;20083;-68
2022/07/05 00:17:28;;;;;;;9.63;1.92;;;;;;;;;;5027354;28;21731;-68
2022/07/05 00:19:53;;;;;;;8.13;1.87;;;;;;;;;;5031158;28;20059;-68
2022/07/05 00:22:18;;;;;;;6.53;2.03;;;;;;;;;;5030005;28;20303;-68
2022/07/05 00:24:44;;;;;;;5.28;1.98;;;;;;;;;;5030387;28;20493;-68
2022/07/05 00:27:09;;;;;;;4.85;1.85;;;;;;;;;;5030441;28;20029;-68
2022/07/05 00:29:34;;;;;;;13.93;1.87;;;;;;;;;;5030014;28;20017;-67
2022/07/05 00:31:59;;;;;;;9.50;1.93;;;;;;;;;;5028799;28;20637;-67
2022/07/05 00:34:24;;;;;;;9.05;1.70;;;;;;;;;;5031944;28;20359;-67
2022/07/05 00:36:50;;;;;;;6.60;1.60;;;;;;;;;;5031301;28;20104;-70
2022/07/05 00:39:15;;;;;;;5.90;1.85;;;;;;;;;;5028938;28;20276;-68
2022/07/05 00:41:41;;;;;;;5.78;1.70;;;;;;;;;;5030098;28;20029;-67
2022/07/05 00:44:08;;;;;;;3.10;1.50;;;;;;;;;;5029272;28;20481;-67
2022/07/05 00:46:33;;;;;;;8.00;1.80;;;;;;;;;;5030038;28;20014;-67
2022/07/05 00:48:59;;;;;;;4.22;1.80;;;;;;;;;;5030945;28;20079;-67
2022/07/05 00:51:25;;;;;;;3.13;1.50;;;;;;;;;;5028939;28;20397;-67
2022/07/05 00:53:50;;;;;;;3.70;2.00;;;;;;;;;;5029904;28;20461;-69
2022/07/05 00:56:16;;;;;;;2.28;1.67;;;;;;;;;;5028195;28;20729;-68
2022/07/05 00:58:41;;;;;;;4.07;2.00;;;;;;;;;;5030533;28;20543;-67
2022/07/05 01:01:07;;;;;;;7.25;2.17;;;;;;;;;;5029040;28;20076;-68
2022/07/05 01:03:32;;;;;;;3.63;1.85;;;;;;;;;;5029115;28;20021;-68
2022/07/05 01:05:59;;;;;;;6.10;2.05;;;;;;;;;;5030205;28;20084;-68
2022/07/05 01:08:24;;;;;;;8.43;2.05;;;;;;;;;;5029231;28;20088;-68
2022/07/05 01:10:50;;;;;;;10.27;2.30;;;;;;;;;;5028781;28;20035;-67
2022/07/05 01:13:16;;;;;;;3.13;1.73;;;;;;;;;;5027660;28;20025;-67
2022/07/05 01:15:41;;;;;;;4.40;2.33;;;;;;;;;;5025974;22;20038;-71
2022/07/05 01:18:08;;;;;;;3.90;2.05;;;;;;;;;;4990830;28;20053;-72
2022/07/05 01:20:33;;;;;;;6.50;2.30;;;;;;;;;;4985789;28;20070;-71
2022/07/05 01:22:59;;;;;;;3.42;2.28;;;;;;;;;;4985447;28;20030;-72
2022/07/05 01:25:26;;;;;;;3.80;2.20;;;;;;;;;;4986757;28;20033;-71
2022/07/05 01:27:51;;;;;;;10.43;2.35;;;;;;;;;;4989756;28;20030;-71
2022/07/05 01:30:17;;;;;;;4.10;2.30;;;;;;;;;;4985906;28;20045;-71
2022/07/05 01:32:43;;;;;;;6.97;2.15;;;;;;;;;;4990814;28;20061;-71
2022/07/05 01:35:08;;;;;;;6.78;2.10;;;;;;;;;;4988427;28;20069;-72
2022/07/05 01:37:34;;;;;;;7.40;2.13;;;;;;;;;;4989463;28;20026;-71
2022/07/05 01:40:02;;;;;;;6.90;2.03;;;;;;;;;;4989083;28;20050;-71
2022/07/05 01:42:27;;;;;;;3.45;1.90;;;;;;;;;;4988064;28;20048;-71
2022/07/05 01:44:52;;;;;;;5.93;2.13;;;;;;;;;;4988473;28;20539;-72
2022/07/05 01:47:17;;;;;;;9.45;2.40;;;;;;;;;;4990117;28;20293;-71
2022/07/05 01:49:43;;;;;;;4.73;3.10;;;;;;;;;;4988556;28;20049;-70
2022/07/05 01:52:10;;;;;;;8.75;2.80;;;;;;;;;;4988879;28;20277;-71
2022/07/05 01:54:35;;;;;;;6.57;2.88;;;;;;;;;;4987238;28;20022;-70
2022/07/05 01:57:00;;;;;;;3.67;2.47;;;;;;;;;;4988047;28;20034;-70
2022/07/05 01:59:27;;;;;;;7.10;2.60;;;;;;;;;;4988330;28;20014;-71
2022/07/05 02:01:52;;;;;;;4.60;2.78;;;;;;;;;;4988840;28;20430;-71
2022/07/05 02:04:17;;;;;;;7.53;3.10;;;;;;;;;;4989140;28;20026;-71
2022/07/05 02:06:45;;;;;;;7.78;3.05;;;;;;;;;;4987087;28;20327;-70
2022/07/05 02:09:10;;;;;;;6.65;3.25;;;;;;;;;;4985601;28;20030;-70
2022/07/05 02:11:35;;;;;;;6.17;3.87;;;;;;;;;;4987773;28;20015;-70
2022/07/05 02:14:00;;;;;;;12.33;3.13;;;;;;;;;;4986259;28;20265;-70
2022/07/05 02:16:26;;;;;;;8.27;3.40;;;;;;;;;;4988540;28;20273;-70
2022/07/05 02:18:51;;;;;;;6.40;3.20;;;;;;;;;;4984327;28;20026;-70
2022/07/05 02:21:16;;;;;;;9.93;3.05;;;;;;;;;;4986654;28;20433;-71
2022/07/05 02:23:42;;;;;;;5.38;3.33;;;;;;;;;;4986754;28;20057;-71
2022/07/05 02:26:07;;;;;;;12.27;2.93;;;;;;;;;;4990129;28;20136;-70
2022/07/05 02:28:32;;;;;;;6.10;2.87;;;;;;;;;;4990067;28;20489;-71
2022/07/05 02:30:57;;;;;;;4.38;2.80;;;;;;;;;;4986938;28;20327;-72
2022/07/05 02:33:22;;;;;;;4.38;2.80;;;;;;;;;;4986265;28;20049;-71
2022/07/05 02:35:47;;;;;;;5.90;2.83;;;;;;;;;;4988918;28;20026;-71
2022/07/05 02:38:13;;;;;;;4.63;3.30;;;;;;;;;;4989118;28;20344;-71
2022/07/05 02:40:38;;;;;;;9.87;3.97;;;;;;;;;;4988315;28;20277;-71
2022/07/05 02:43:03;;;;;;;7.80;4.10;;;;;;;;;;4985838;28;20329;-70
2022/07/05 02:45:28;;;;;;;5.20;3.00;;;;;;;;;;4988514;28;20838;-70
2022/07/05 02:47:54;;;;;;;6.57;3.22;;;;;;;;;;4989683;28;20293;-71
2022/07/05 02:50:19;;;;;;;6.15;3.28;;;;;;;;;;4987985;28;20026;-70
2022/07/05 02:52:44;;;;;;;4.93;2.80;;;;;;;;;;4985876;28;20027;-71
2022/07/05 02:55:10;;;;;;;6.35;2.70;;;;;;;;;;4989797;28;20381;-71
2022/07/05 02:57:38;;;;;;;7.63;3.20;;;;;;;;;;4985471;28;20037;-71
2022/07/05 03:00:03;;;;;;;6.00;3.13;;;;;;;;;;4991670;28;20289;-70
2022/07/05 03:02:29;;;;;;;5.90;2.70;;;;;;;;;;4991134;28;20030;-71
2022/07/05 03:04:54;;;;;;;8.23;2.87;;;;;;;;;;4990351;28;20072;-70
2022/07/05 03:07:19;;;;;;;7.90;2.67;;;;;;;;;;4993299;28;20865;-70
2022/07/05 03:09:44;;;;;;;6.75;2.33;;;;;;;;;;4991391;28;20163;-70
2022/07/05 03:12:09;;;;;;;5.10;2.17;;;;;;;;;;4992543;28;20080;-71
2022/07/05 03:14:34;;;;;;;5.30;2.50;;;;;;;;;;4992421;28;20746;-70
2022/07/05 03:17:00;;;;;;;4.83;2.17;;;;;;;;;;4992147;28;20616;-70
2022/07/05 03:19:25;;;;;;;6.57;2.50;;;;;;;;;;4991976;28;20343;-70
2022/07/05 03:21:50;;;;;;;5.07;2.88;;;;;;;;;;4989957;28;20061;-70
2022/07/05 03:24:16;;;;;;;4.23;2.50;;;;;;;;;;4992106;28;20022;-71
2022/07/05 03:26:41;;;;;;;7.15;2.47;;;;;;;;;;4991281;28;20904;-70
2022/07/05 03:29:07;;;;;;;4.78;2.78;;;;;;;;;;4990292;28;20018;-71
2022/07/05 03:31:32;;;;;;;6.72;2.70;;;;;;;;;;4989904;28;20017;-71
2022/07/05 03:33:57;;;;;;;8.03;3.00;;;;;;;;;;4991632;28;20400;-71
2022/07/05 03:36:22;;;;;;;9.97;2.93;;;;;;;;;;4989304;28;20282;-70
2022/07/05 03:38:48;;;;;;;6.85;2.75;;;;;;;;;;4988435;28;20281;-72
2022/07/05 03:41:13;;;;;;;3.45;2.88;;;;;;;;;;4989674;28;20069;-70
2022/07/05 03:43:38;;;;;;;9.85;3.42;;;;;;;;;;4990417;28;20021;-71
2022/07/05 03:46:03;;;;;;;5.73;3.20;;;;;;;;;;4991212;28;20022;-70
2022/07/05 03:48:28;;;;;;;12.48;3.65;;;;;;;;;;4991167;28;20289;-70
2022/07/05 03:50:54;;;;;;;4.57;2.93;;;;;;;;;;4988833;28;20236;-71
2022/07/05 03:53:19;;;;;;;5.63;2.92;;;;;;;;;;4988715;28;20368;-70
2022/07/05 03:55:44;;;;;;;4.30;2.80;;;;;;;;;;4990019;28;20029;-71
2022/07/05 03:58:09;;;;;;;8.82;2.90;;;;;;;;;;4985791;28;20119;-70
2022/07/05 04:00:35;;;;;;;6.87;2.97;;;;;;;;;;4989023;28;20019;-72
2022/07/05 04:03:00;;;;;;;4.70;2.80;;;;;;;;;;4992972;28;20363;-68
2022/07/05 04:05:25;;;;;;;9.23;3.40;;;;;;;;;;4992111;28;20026;-68
2022/07/05 04:07:51;;;;;;;5.17;3.17;;;;;;;;;;4990005;28;20418;-68
2022/07/05 04:10:17;;;;;;;13.35;3.58;;;;;;;;;;4992988;28;20308;-68
2022/07/05 04:12:42;;;;;;;5.43;3.17;;;;;;;;;;4989918;28;20058;-68
2022/07/05 04:15:08;;;;;;;11.70;3.53;;;;;;;;;;4989353;28;20030;-68
2022/07/05 04:17:33;;;;;;;5.80;3.17;;;;;;;;;;4984167;28;20026;-68
2022/07/05 04:19:58;;;;;;;9.80;3.57;;;;;;;;;;4987923;28;20293;-69
2022/07/05 04:22:23;;;;;;;7.85;2.70;;;;;;;;;;4987706;28;20265;-69
2022/07/05 04:27:32;;;;;;;12.82;3.78;;;;;;;;;;4986707;28;20999;-68
2022/07/05 04:29:57;;;;;;;8.10;3.10;;;;;;;;;;4983471;28;20050;-68
2022/07/05 04:32:22;;;;;;;8.43;2.83;;;;;;;;;;4988273;28;20273;-68
2022/07/05 04:34:48;;;;;;;6.63;3.13;;;;;;;;;;4989005;28;20272;-68
2022/07/05 04:37:13;;;;;;;10.00;4.33;;;;;;;;;;4987670;28;20109;-68
2022/07/05 04:39:38;;;;;;;9.43;2.87;;;;;;;;;;4989913;28;20280;-68
2022/07/05 04:42:03;;;;;;;5.30;3.10;;;;;;;;;;4985477;28;20364;-68
2022/07/05 04:44:29;;;;;;;6.72;2.80;;;;;;;;;;4988253;28;20274;-69
2022/07/05 04:46:54;;;;;;;11.60;3.87;;;;;;;;;;4987899;28;20058;-69
2022/07/05 04:49:19;;;;;;;8.90;3.17;;;;;;;;;;4984247;28;20277;-68
2022/07/05 04:51:44;;;;;;;4.73;2.90;;;;;;;;;;4988316;28;20653;-70
2022/07/05 04:54:09;;;;;;;7.03;3.07;;;;;;;;;;4989634;28;20142;-69
2022/07/05 04:56:34;;;;;;;4.13;2.70;;;;;;;;;;4986355;28;20288;-69
2022/07/05 04:59:00;;;;;;;5.77;2.77;;;;;;;;;;4988478;28;20036;-69
2022/07/05 05:01:25;;;;;;;4.37;2.67;;;;;;;;;;4991169;28;20281;-70
2022/07/05 05:03:50;;;;;;;5.40;3.20;;;;;;;;;;4988232;28;20324;-70
2022/07/05 05:06:15;;;;;;;10.00;3.47;;;;;;;;;;4987530;28;20633;-70
2022/07/05 05:08:41;;;;;;;9.50;3.45;;;;;;;;;;4988427;28;20289;-69
2022/07/05 05:11:07;;;;;;;6.38;3.40;;;;;;;;;;4988703;28;20022;-70
2022/07/05 05:13:32;;;;;;;5.65;2.70;;;;;;;;;;4989423;28;20097;-69
2022/07/05 05:15:57;;;;;;;8.67;3.10;;;;;;;;;;4988558;28;20502;-69
2022/07/05 05:18:26;;;;;;;4.68;2.63;;;;;;;;;;4986894;28;20301;-69
2022/07/05 05:20:52;;;;;;;9.63;2.40;;;;;;;;;;4985052;28;20034;-70
2022/07/05 05:23:17;;;;;;;4.25;2.40;;;;;;;;;;4988966;28;20129;-70
2022/07/05 05:25:42;;;;;;;6.57;2.60;;;;;;;;;;4985953;28;20026;-69
2022/07/05 05:28:07;;;;;;;6.05;2.50;;;;;;;;;;4986504;28;20701;-69
2022/07/05 05:30:32;;;;;;;7.60;2.83;;;;;;;;;;4984879;28;20494;-69
2022/07/05 05:32:57;;;;;;;7.13;2.40;;;;;;;;;;4984551;28;20281;-71
2022/07/05 05:35:23;;;;;;;3.97;2.37;;;;;;;;;;4989023;28;20364;-69
2022/07/05 05:37:50;;;;;;;5.50;1.98;;;;;;;;;;4984601;28;20788;-69
2022/07/05 05:40:15;;;;;;;9.82;2.22;;;;;;;;;;4981936;28;20121;-69
2022/07/05 05:42:40;;;;;;;5.53;2.35;;;;;;;;;;4988583;28;20543;-71
2022/07/05 05:45:06;;;;;;;4.90;2.15;;;;;;;;;;4981448;28;20030;-69
2022/07/05 05:47:31;;;;;;;5.45;2.40;;;;;;;;;;4988004;28;20042;-69
2022/07/05 05:49:56;;;;;;;4.23;2.07;;;;;;;;;;4985534;28;20026;-68
2022/07/05 05:52:21;;;;;;;5.03;2.30;;;;;;;;;;4984512;28;20270;-69
2022/07/05 05:54:47;;;;;;;3.97;1.93;;;;;;;;;;4985093;28;20289;-68
2022/07/05 05:57:12;;;;;;;7.33;1.90;;;;;;;;;;4984866;28;20312;-68
2022/07/05 05:59:37;;;;;;;5.80;2.37;;;;;;;;;;4983489;28;20788;-68
2022/07/05 06:02:02;;;;;;;5.33;2.37;;;;;;;;;;4986346;28;20276;-69
2022/07/05 06:04:27;;;;;;;3.67;2.00;;;;;;;;;;4995245;28;20487;-68
2022/07/05 06:06:52;;;;;;;6.03;2.17;;;;;;;;;;4989467;28;20034;-68
2022/07/05 06:09:19;;;;;;;7.25;2.83;;;;;;;;;;4990537;28;20125;-68
2022/07/05 06:11:44;;;;;;;5.13;1.95;;;;;;;;;;4988352;28;20102;-68
2022/07/05 06:14:11;;;;;;;11.37;2.17;;;;;;;;;;4988539;28;20100;-68
2022/07/05 06:16:36;;;;;;;2.53;1.52;;;;;;;;;;4987925;28;20291;-68
2022/07/05 06:19:02;;;;;;;4.47;1.70;;;;;;;;;;4984451;28;20039;-68
2022/07/05 06:21:27;;;;;;;4.32;1.80;;;;;;;;;;4985975;28;20327;-68
2022/07/05 06:23:52;;;;;;;3.63;1.37;;;;;;;;;;4986739;28;20022;-68
2022/07/05 06:26:17;;;;;;;3.03;1.80;;;;;;;;;;4985281;28;20364;-68
2022/07/05 06:28:42;;;;;;;3.70;1.65;;;;;;;;;;4982866;28;20426;-69
2022/07/05 06:31:08;;;;;;;7.67;1.67;;;;;;;;;;4981149;28;20044;-69
2022/07/05 06:33:33;;;;;;;9.53;2.73;;;;;;;;;;4988968;28;20022;-68
2022/07/05 06:35:58;;;;;;;4.03;1.80;;;;;;;;;;4986428;28;21752;-68
2022/07/05 06:38:23;;;;;;;5.43;1.60;;;;;;;;;;4986838;28;20277;-68
2022/07/05 06:40:48;;;;;;;2.67;1.45;;;;;;;;;;4985112;28;20034;-68
2022/07/05 06:43:14;;;;;;;3.92;1.50;;;;;;;;;;4987144;28;20030;-68
2022/07/05 06:45:39;;;;;;;3.35;1.67;;;;;;;;;;4986436;28;20022;-68
2022/07/05 06:48:05;;;;;;;7.40;1.60;;;;;;;;;;4988789;28;20382;-69
2022/07/05 06:50:33;;;;;;;2.67;1.55;;;;;;;;;;4983748;28;20026;-69
2022/07/05 06:52:58;;;;;;;6.75;1.65;;;;;;;;;;4985464;28;20084;-71
2022/07/05 06:55:24;;;;;;;4.53;1.90;;;;;;;;;;4983432;28;20026;-68
2022/07/05 06:57:56;;;;;;;3.03;1.60;;;;;;;;;;4985197;28;20393;-69
2022/07/05 07:00:21;;;;;;;4.75;1.90;;;;;;;;;;4987538;28;20026;-69
2022/07/05 07:02:46;;;;;;;6.70;2.10;;;;;;;;;;4983853;28;20031;-68
2022/07/05 07:05:12;;;;;;;3.93;1.73;;;;;;;;;;4989981;28;20320;-69
2022/07/05 07:10:21;;;;;;;3.47;1.40;;;;;;;;;;4986631;28;20037;-69
2022/07/05 07:12:46;;;;;;;4.33;1.40;;;;;;;;;;4988265;28;20018;-68
2022/07/05 07:15:11;;;;;;;3.97;1.40;;;;;;;;;;4986053;28;20646;-68
2022/07/05 07:17:36;;;;;;;10.00;2.30;;;;;;;;;;4987129;28;20426;-68
2022/07/05 07:20:02;;;;;;;7.63;2.20;;;;;;;;;;4989338;28;20300;-68
2022/07/05 07:22:27;;;;;;;4.10;1.75;;;;;;;;;;4986202;28;20026;-68
2022/07/05 07:24:53;;;;;;;5.43;1.27;;;;;;;;;;4988704;28;20041;-68
2022/07/05 07:27:18;;;;;;;5.45;1.40;;;;;;;;;;4985621;28;20026;-67
2022/07/05 07:29:43;;;;;;;8.20;2.07;;;;;;;;;;4990486;28;20011;-67
2022/07/05 07:32:09;;;;;;;5.20;1.95;;;;;;;;;;4988343;28;20489;-68
2022/07/05 07:34:34;;;;;;;4.05;1.75;;;;;;;;;;4988399;28;20011;-67
2022/07/05 07:37:00;;;;;;;7.63;2.35;;;;;;;;;;4988054;28;20161;-67
2022/07/05 07:39:26;;;;;;;9.55;2.65;;;;;;;;;;4986784;28;20145;-68
2022/07/05 07:41:51;;;;;;;8.95;2.28;;;;;;;;;;4989554;28;20018;-68
2022/07/05 07:44:16;;;;;;;4.35;1.83;;;;;;;;;;4988908;28;20494;-68
2022/07/05 07:46:42;;;;;;;7.32;2.38;;;;;;;;;;4990714;28;20054;-68
2022/07/05 07:49:07;;;;;;;3.78;1.80;;;;;;;;;;4992156;28;20031;-68
2022/07/05 07:51:33;;;;;;;5.85;1.90;;;;;;;;;;4993057;28;20021;-68
2022/07/05 07:53:58;;;;;;;5.53;2.13;;;;;;;;;;4992444;28;20460;-68
2022/07/05 07:56:23;;;;;;;5.07;2.30;;;;;;;;;;4990466;28;20019;-68
2022/07/05 07:58:48;;;;;;;3.77;2.07;;;;;;;;;;4989911;28;20388;-69
2022/07/05 08:01:14;;;;;;;3.23;1.77;;;;;;;;;;4987924;28;20273;-69
2022/07/05 08:03:42;;;;;;;6.25;1.67;;;;;;;;;;4994042;28;20285;-68
2022/07/05 08:06:08;;;;;;;7.40;1.83;;;;;;;;;;4991186;28;20103;-69
2022/07/05 08:08:34;;;;;;;4.22;1.52;;;;;;;;;;4990883;28;20422;-69
2022/07/05 08:10:59;;;;;;;8.20;1.95;;;;;;;;;;4993513;28;20045;-69
2022/07/05 08:13:25;;;;;;;9.27;1.90;;;;;;;;;;4988593;28;20010;-68
2022/07/05 08:15:50;;;;;;;9.23;1.77;;;;;;;;;;4991866;28;20026;-69
2022/07/05 08:23:43;;;;;;;3.42;1.50;;;;;;;;;;4988932;28;20049;-68
2022/07/05 08:26:08;;;;;;;6.80;2.03;;;;;;;;;;4990669;28;20026;-68
2022/07/05 08:28:33;;;;;;;6.47;1.80;;;;;;;;;;4990489;28;20041;-69
2022/07/05 08:30:58;;;;;;;5.50;1.60;;;;;;;;;;4991346;28;20288;-68
2022/07/05 08:33:24;;;;;;;3.87;1.50;;;;;;;;;;4990795;28;20033;-69
2022/07/05 08:35:49;;;;;;;4.35;1.50;;;;;;;;;;4987446;28;20019;-68
2022/07/05 08:38:14;;;;;;;4.25;1.30;;;;;;;;;;4992149;28;20027;-68
2022/07/05 08:40:42;;;;;;;2.93;1.63;;;;;;;;;;4990519;28;20022;-68
2022/07/05 08:43:09;;;;;;;5.43;1.55;;;;;;;;;;4991890;28;20033;-69
2022/07/05 08:45:34;;;;;;;5.95;1.70;;;;;;;;;;4991365;28;20054;-69
2022/07/05 08:48:00;;;;;;;7.50;1.53;;;;;;;;;;4989828;28;20535;-68
2022/07/05 08:50:26;;;;;;;6.05;2.08;;;;;;;;;;4990460;28;20630;-68
2022/07/05 08:52:52;;;;;;;11.00;2.35;;;;;;;;;;4990841;28;20466;-68
2022/07/05 08:55:17;;;;;;;5.25;1.65;;;;;;;;;;4991573;28;20034;-69
2022/07/05 08:57:42;;;;;;;3.75;1.67;;;;;;;;;;4987562;28;20162;-69
2022/07/05 09:00:08;;;;;;;3.47;2.40;;;;;;;;;;4992148;28;20033;-69
2022/07/05 09:02:33;;;;;;;3.55;1.88;;;;;;;;;;4990972;28;20273;-68
2022/07/05 09:04:59;;;;;;;3.30;1.53;;;;;;;;;;4992082;28;20025;-68
2022/07/05 09:07:26;;;;;;;4.97;1.50;;;;;;;;;;4988430;28;20490;-69
2022/07/05 09:09:51;;;;;;;8.65;2.00;;;;;;;;;;4990031;28;20029;-69
2022/07/05 09:12:16;;;;;;;5.82;2.95;;;;;;;;;;4992074;28;20010;-68
2022/07/05 09:14:41;;;;;;;18.13;2.23;;;;;;;;;;4990361;28;20018;-68
2022/07/05 09:17:07;;;;;;;10.05;2.22;;;;;;;;;;4989759;28;20335;-69
2022/07/05 09:19:34;;;;;;;6.03;2.30;;;;;;;;;;4987446;28;20029;-69
2022/07/05 09:22:03;;;;;;;6.88;2.90;;;;;;;;;;4990430;28;20015;-69
2022/07/05 09:24:28;;;;;;;5.75;2.53;;;;;;;;;;4988468;28;20423;-68
2022/07/05 09:27:01;;;;;;;5.85;2.30;;;;;;;;;;4989262;28;20017;-68
2022/07/05 09:29:26;;;;;;;5.28;1.73;;;;;;;;;;5000193;28;20022;-69
2022/07/05 09:31:52;;;;;;;3.53;1.60;;;;;;;;;;4990979;28;20145;-69
2022/07/05 09:34:21;;;;;;;3.67;1.58;;;;;;;;;;4988361;28;20010;-69
2022/07/05 09:36:55;;;;;;;4.28;1.67;;;;;;;;;;4989344;28;20030;-68
2022/07/05 09:39:37;;;;;;;3.70;2.10;;;;;;;;;;4985744;28;20383;-68
2022/07/05 09:42:08;;;;;;;10.50;1.83;;;;;;;;;;4988833;28;20077;-69
2022/07/05 09:44:35;;;;;;;7.90;2.28;;;;;;;;;;4991370;28;20426;-68
2022/07/05 09:47:14;;;;;;;4.82;2.45;;;;;;;;;;4989471;28;20026;-69
2022/07/05 09:49:44;;;;;;;5.47;1.80;;;;;;;;;;4989324;28;20836;-69
2022/07/05 09:52:09;;;;;;;;;;;;;;;;;;4988131;28;20045;-69
2022/07/05 09:54:34;;;;;;;5.30;1.77;;;;;;;;;;4988557;28;19910;-68
2022/07/05 09:57:00;;;;;;;5.10;2.13;;;;;;;;;;4989404;28;20076;-69
2022/07/05 09:59:25;;;;;;;6.97;1.60;;;;;;;;;;4984319;28;20266;-69
2022/07/05 10:01:51;;;;;;;3.78;1.95;;;;;;;;;;4990086;28;20819;-69
2022/07/05 10:04:16;;;;;;;4.75;1.92;;;;;;;;;;4988131;28;20061;-69
2022/07/05 10:06:42;;;;;;;4.97;1.95;;;;;;;;;;4990847;28;20570;-68
2022/07/05 10:09:08;;;;;;;4.60;1.80;;;;;;;;;;4989028;28;20021;-69
2022/07/05 10:11:34;;;;;;;2.47;1.48;;;;;;;;;;4989816;28;20026;-69
2022/07/05 10:14:02;;;;;;;6.20;1.60;;;;;;;;;;4984908;28;20065;-69
2022/07/05 10:16:27;;;;;;;6.18;1.70;;;;;;;;;;4989071;28;20054;-69
2022/07/05 10:18:54;;;;;;;6.47;1.83;;;;;;;;;;4989325;28;20050;-69
2022/07/05 10:21:19;;;;;;;3.80;1.45;;;;;;;;;;4988692;28;20837;-69
2022/07/05 10:23:45;;;;;;;3.10;1.50;;;;;;;;;;4983095;28;20101;-69
2022/07/05 10:26:12;;;;;;;6.65;1.55;;;;;;;;;;4990842;28;20498;-69
2022/07/05 10:28:39;;;;;;;5.38;1.30;;;;;;;;;;4984028;28;20076;-69
2022/07/05 10:31:04;;;;;;;9.60;1.55;;;;;;;;;;4987084;28;20017;-69
2022/07/05 10:33:30;;;;;;;5.13;1.70;;;;;;;;;;4989002;28;20101;-69
2022/07/05 10:35:56;;;;;;;2.67;0.93;;;;;;;;;;4989273;28;20033;-68
2022/07/05 10:38:21;;;;;;;7.10;1.55;;;;;;;;;;4984511;28;20033;-68
2022/07/05 10:40:49;;;;;;;4.40;1.77;;;;;;;;;;4990900;28;20022;-69
2022/07/05 10:43:15;;;;;;;2.63;1.70;;;;;;;;;;4984095;28;20022;-69
2022/07/05 10:45:46;;;;;;;4.03;1.50;;;;;;;;;;4987409;28;20041;-69
2022/07/05 10:48:11;;;;;;;3.78;1.02;;;;;;;;;;4986029;28;20030;-68
2022/07/05 10:50:42;;;;;;;2.70;1.23;;;;;;;;;;4990071;28;20025;-68
2022/07/05 10:53:07;;;;;;;5.30;1.63;;;;;;;;;;4987705;28;20018;-68
2022/07/05 10:55:46;;;;;;;6.83;1.40;;;;;;;;;;4985155;28;20704;-69
2022/07/05 10:58:17;;;;;;;5.75;1.35;;;;;;;;;;4987147;28;20296;-69
2022/07/05 11:00:43;;;;;;;3.72;1.55;;;;;;;;;;4989014;28;20018;-69
2022/07/05 11:03:26;;;;;;;5.30;1.83;;;;;;;;;;4988866;28;20024;-69
2022/07/05 11:05:52;;;;;;;6.50;1.48;;;;;;;;;;4985649;28;20027;-68
2022/07/05 11:08:17;;;;;;;6.70;1.23;;;;;;;;;;4990691;28;20031;-69
2022/07/05 11:11:02;;;;;;;5.27;1.43;;;;;;;;;;4985681;28;20014;-68
2022/07/05 11:13:37;;;;;;;4.03;1.27;;;;;;;;;;4986542;28;20121;-69
2022/07/05 11:16:24;;;;;;;4.43;1.48;;;;;;;;;;4989456;28;20115;-68
2022/07/05 11:18:51;;;;;;;6.93;2.03;;;;;;;;;;4989589;28;20105;-68
2022/07/05 11:21:20;;;;;;;7.57;2.05;;;;;;;;;;4992363;28;20023;-68
2022/07/05 11:23:46;;;;;;;2.55;1.50;;;;;;;;;;4993211;28;20026;-68
2022/07/05 11:26:11;;;;;;;3.72;1.70;;;;;;;;;;4987194;28;20031;-69
2022/07/05 11:28:43;;;;;;;6.03;1.95;;;;;;;;;;4992669;28;20025;-69
2022/07/05 11:31:08;;;;;;;7.32;1.30;;;;;;;;;;4992311;28;20386;-68
2022/07/05 11:33:34;;;;;;;4.27;1.17;;;;;;;;;;4992542;28;20093;-68
2022/07/05 11:35:59;;;;;;;9.13;1.90;;;;;;;;;;4991804;28;20273;-69
2022/07/05 11:38:25;;;;;;;5.35;1.35;;;;;;;;;;4990889;28;20313;-68
2022/07/05 11:40:50;;;;;;;7.30;1.55;;;;;;;;;;4993087;28;20037;-68
2022/07/05 11:43:25;;;;;;;5.75;3.08;;;;;;;;;;4992668;28;20038;-68
2022/07/05 11:45:55;;;;;;;3.53;1.50;;;;;;;;;;4991283;28;20122;-69
2022/07/05 11:48:21;;;;;;;8.05;1.90;;;;;;;;;;4993038;28;20553;-68
2022/07/05 11:50:46;;;;;;;2.75;1.10;;;;;;;;;;4993784;28;20061;-68
2022/07/05 11:53:11;;;;;;;4.05;1.40;;;;;;;;;;4990432;28;20033;-68
2022/07/05 11:55:37;;;;;;;4.67;1.50;;;;;;;;;;4989293;28;20025;-69
2022/07/05 11:58:02;;;;;;;3.57;1.70;;;;;;;;;;4993757;28;20280;-68
2022/07/05 12:00:35;;;;;;;8.13;1.50;;;;;;;;;;4988018;28;20360;-68
2022/07/05 12:03:01;;;;;;;11.98;2.15;;;;;;;;;;4993365;28;20025;-69
2022/07/05 12:05:32;;;;;;;7.53;1.30;;;;;;;;;;4991687;28;20108;-68
2022/07/05 12:07:58;;;;;;;1.83;1.00;;;;;;;;;;4989090;28;20023;-68
2022/07/05 12:13:07;;;;;;;4.25;1.83;;;;;;;;;;4985661;28;20114;-69
2022/07/05 12:15:33;;;;;;;2.05;1.10;;;;;;;;;;4993347;28;20475;-68
2022/07/05 12:18:00;;;;;;;2.72;1.00;;;;;;;;;;4992109;28;20493;-68
2022/07/05 12:20:25;;;;;;;6.10;1.13;;;;;;;;;;5006743;28;20427;-69
2022/07/05 12:22:51;;;;;;;3.17;1.25;;;;;;;;;;4991769;28;20022;-69
2022/07/05 12:25:17;;;;;;;1.60;1.02;;;;;;;;;;4989633;28;20490;-69
2022/07/05 12:27:43;;;;;;;3.03;1.10;;;;;;;;;;4992101;28;20038;-70
2022/07/05 12:30:10;;;;;;;12.55;1.23;;;;;;;;;;4991658;28;20025;-71
2022/07/05 12:32:58;;;;;;;2.25;0.85;;;;;;;;;;4990835;28;20541;-70
2022/07/05 12:35:28;;;;;;;2.08;0.88;;;;;;;;;;4987274;28;20471;-69
2022/07/05 12:37:53;;;;;;;;;;;;;;;;;;4991412;28;20511;-69
2022/07/05 12:40:20;;;;;;;4.57;1.20;;;;;;;;;;4989089;28;20438;-69
2022/07/05 12:42:46;;;;;;;4.30;1.00;;;;;;;;;;4992452;28;20126;-69
2022/07/05 12:45:11;;;;;;;5.03;1.10;;;;;;;;;;4990345;28;20491;-69
2022/07/05 12:47:47;;;;;;;5.63;1.05;;;;;;;;;;4993273;28;20022;-69
2022/07/05 12:50:12;;;;;;;2.55;1.13;;;;;;;;;;4988460;28;20140;-69
2022/07/05 12:52:56;;;;;;;5.23;1.20;;;;;;;;;;4988901;28;20015;-70
2022/07/05 12:58:05;;;;;;;6.03;1.60;;;;;;;;;;4985274;28;20077;-69
2022/07/05 13:00:30;;;;;;;12.15;1.50;;;;;;;;;;4990604;28;20026;-70
2022/07/05 13:02:55;;;;;;;7.68;1.33;;;;;;;;;;4992056;28;20030;-69
2022/07/05 13:05:22;;;;;;;5.78;1.52;;;;;;;;;;4988807;28;20109;-68
2022/07/05 13:07:47;;;;;;;4.18;1.60;;;;;;;;;;4988647;28;20038;-69
2022/07/05 13:10:13;;;;;;;3.33;1.70;;;;;;;;;;4991181;28;20206;-69
2022/07/05 13:12:38;;;;;;;4.40;1.35;;;;;;;;;;4990218;28;20373;-69
2022/07/05 13:15:03;;;;;;;6.33;1.17;;;;;;;;;;4989267;28;20542;-69
2022/07/05 13:17:29;;;;;;;3.90;1.65;;;;;;;;;;4989773;28;20084;-69
2022/07/05 13:19:54;;;;;;;5.47;1.60;;;;;;;;;;4989816;28;20018;-69
2022/07/05 13:22:19;;;;;;;2.37;1.60;;;;;;;;;;4986427;28;20093;-69
2022/07/05 13:24:45;;;;;;;2.87;1.37;;;;;;;;;;4988565;28;20106;-69
2022/07/05 13:27:11;;;;;;;5.60;1.88;;;;;;;;;;4988215;28;20021;-69
2022/07/05 13:29:36;;;;;;;5.70;1.20;;;;;;;;;;4991499;28;20029;-69
2022/07/05 13:32:02;;;;;;;4.10;1.52;;;;;;;;;;4990751;28;20464;-69
2022/07/05 13:34:28;;;;;;;3.13;1.38;;;;;;;;;;4985001;28;20050;-69
2022/07/05 13:36:54;;;;;;;5.43;1.25;;;;;;;;;;4988763;28;20018;-68
2022/07/05 13:39:19;;;;;;;6.82;1.20;;;;;;;;;;4990799;28;20014;-69
2022/07/05 13:41:46;;;;;;;6.28;2.40;;;;;;;;;;4987241;28;20018;-69
2022/07/05 13:44:11;;;;;;;3.80;1.17;;;;;;;;;;4989333;28;20030;-69
2022/07/05 13:46:36;;;;;;;6.40;1.40;;;;;;;;;;4990907;28;20057;-69
2022/07/05 13:49:01;;;;;;;5.73;1.40;;;;;;;;;;4990839;28;20081;-69
2022/07/05 13:51:27;;;;;;;3.72;1.27;;;;;;;;;;4988595;28;20023;-69
2022/07/05 13:53:52;;;;;;;4.38;1.52;;;;;;;;;;4987063;28;20420;-69
2022/07/05 13:56:17;;;;;;;3.57;2.03;;;;;;;;;;4987040;28;20019;-69
2022/07/05 13:58:42;;;;;;;3.10;1.63;;;;;;;;;;4987819;28;20022;-69
2022/07/05 14:01:08;;;;;;;8.87;1.57;;;;;;;;;;4989520;28;20105;-69
2022/07/05 14:03:33;;;;;;;4.03;1.47;;;;;;;;;;4988276;28;20061;-69
2022/07/05 14:05:58;;;;;;;1.87;0.90;;;;;;;;;;4990403;28;20281;-69
2022/07/05 14:08:23;;;;;;;4.70;1.23;;;;;;;;;;4989359;28;20023;-69
2022/07/05 14:10:53;;;;;;;4.60;1.20;;;;;;;;;;4991267;28;20022;-69
2022/07/05 14:13:18;;;;;;;4.20;1.77;;;;;;;;;;4986628;28;20754;-69
2022/07/05 14:15:45;;;;;;;4.15;1.27;;;;;;;;;;4987120;28;20033;-69
2022/07/05 14:18:10;;;;;;;4.20;1.80;;;;;;;;;;4992384;28;20026;-69
2022/07/05 14:20:35;;;;;;;6.23;1.77;;;;;;;;;;4986536;28;20030;-69
2022/07/05 14:23:01;;;;;;;9.47;1.30;;;;;;;;;;4987144;28;20623;-69
2022/07/05 14:25:26;;;;;;;9.23;1.97;;;;;;;;;;4989867;28;20757;-69
2022/07/05 14:27:51;;;;;;;7.50;1.43;;;;;;;;;;4983151;28;20312;-69
2022/07/05 14:30:17;;;;;;;5.83;1.17;;;;;;;;;;4988875;28;20285;-69
2022/07/05 14:32:42;;;;;;;9.70;2.70;;;;;;;;;;4988050;28;20022;-69
2022/07/05 14:35:07;;;;;;;2.17;1.37;;;;;;;;;;4988564;28;20382;-69
2022/07/05 14:37:33;;;;;;;4.60;1.45;;;;;;;;;;4985020;28;20775;-69
2022/07/05 14:39:58;;;;;;;6.38;1.10;;;;;;;;;;4987327;28;20068;-69
2022/07/05 14:42:23;;;;;;;9.00;1.40;;;;;;;;;;4986129;28;20027;-69
2022/07/05 14:44:48;;;;;;;8.67;1.40;;;;;;;;;;4986508;28;20335;-69
2022/07/05 14:47:13;;;;;;;4.23;1.30;;;;;;;;;;4988139;28;20534;-69
2022/07/05 14:49:39;;;;;;;5.33;1.40;;;;;;;;;;4986863;28;20073;-69
2022/07/05 14:52:04;;;;;;;3.67;1.50;;;;;;;;;;4986230;28;20022;-69